sensor_id;sensor_type;location;lat;lon;timestamp;temperature;humidity
15231;DHT22;32569;51.762;8.564;2022-09-03T00:01:34;17.20;87.00
15231;DHT22;32569;51.762;8.564;2022-09-03T00:04:06;17.10;87.10
15231;DHT22;32569;51.762;8.564;2022-09-03T00:06:39;17.10;87.10
15231;DHT22;32569;51.762;8.564;2022-09-03T00:09:11;17.10;87.20
15231;DHT22;32569;51.762;8.564;2022-09-03T00:11:49;17.10;87.40
15231;DHT22;32569;51.762;8.564;2022-09-03T00:14:19;17.10;87.50
15231;DHT22;32569;51.762;8.564;2022-09-03T00:16:51;17.00;87.70
15231;DHT22;32569;51.762;8.564;2022-09-03T00:19:23;16.90;87.70
15231;DHT22;32569;51.762;8.564;2022-09-03T00:21:57;16.90;87.70
15231;DHT22;32569;51.762;8.564;2022-09-03T00:24:28;16.90;87.90
15231;DHT22;32569;51.762;8.564;2022-09-03T00:26:59;16.80;88.10
15231;DHT22;32569;51.762;8.564;2022-09-03T00:29:32;16.80;88.10
15231;DHT22;32569;51.762;8.564;2022-09-03T00:32:05;16.80;88.20
15231;DHT22;32569;51.762;8.564;2022-09-03T00:34:36;16.80;88.10
15231;DHT22;32569;51.762;8.564;2022-09-03T00:37:08;16.70;88.40
15231;DHT22;32569;51.762;8.564;2022-09-03T00:39:36;16.60;88.70
15231;DHT22;32569;51.762;8.564;2022-09-03T00:42:16;16.60;88.70
15231;DHT22;32569;51.762;8.564;2022-09-03T00:45:03;16.50;89.50
15231;DHT22;32569;51.762;8.564;2022-09-03T00:47:43;16.50;89.10
15231;DHT22;32569;51.762;8.564;2022-09-03T00:50:17;16.50;89.40
15231;DHT22;32569;51.762;8.564;2022-09-03T00:52:55;16.40;89.50
15231;DHT22;32569;51.762;8.564;2022-09-03T00:55:31;16.30;89.70
15231;DHT22;32569;51.762;8.564;2022-09-03T00:58:11;16.30;89.80
15231;DHT22;32569;51.762;8.564;2022-09-03T01:00:41;16.30;89.80
15231;DHT22;32569;51.762;8.564;2022-09-03T01:03:10;16.30;89.90
15231;DHT22;32569;51.762;8.564;2022-09-03T01:06:00;16.30;89.90
15231;DHT22;32569;51.762;8.564;2022-09-03T01:08:48;16.20;90.00
15231;DHT22;32569;51.762;8.564;2022-09-03T01:11:23;16.10;90.10
15231;DHT22;32569;51.762;8.564;2022-09-03T01:13:58;16.00;90.20
15231;DHT22;32569;51.762;8.564;2022-09-03T01:16:34;16.00;90.30
15231;DHT22;32569;51.762;8.564;2022-09-03T01:19:11;15.90;90.40
15231;DHT22;32569;51.762;8.564;2022-09-03T01:21:51;15.90;90.50
15231;DHT22;32569;51.762;8.564;2022-09-03T01:25:02;15.80;90.60
15231;DHT22;32569;51.762;8.564;2022-09-03T01:27:42;15.80;90.60
15231;DHT22;32569;51.762;8.564;2022-09-03T01:30:14;15.70;90.70
15231;DHT22;32569;51.762;8.564;2022-09-03T01:32:47;15.60;90.80
15231;DHT22;32569;51.762;8.564;2022-09-03T01:35:21;15.60;90.90
15231;DHT22;32569;51.762;8.564;2022-09-03T01:38:01;15.60;90.90
15231;DHT22;32569;51.762;8.564;2022-09-03T01:40:39;15.60;91.00
15231;DHT22;32569;51.762;8.564;2022-09-03T01:43:26;15.50;91.00
15231;DHT22;32569;51.762;8.564;2022-09-03T01:46:01;15.40;91.20
15231;DHT22;32569;51.762;8.564;2022-09-03T01:48:38;15.30;91.30
15231;DHT22;32569;51.762;8.564;2022-09-03T01:51:12;15.30;91.30
15231;DHT22;32569;51.762;8.564;2022-09-03T01:56:53;15.30;91.30
15231;DHT22;32569;51.762;8.564;2022-09-03T01:59:30;15.30;91.40
15231;DHT22;32569;51.762;8.564;2022-09-03T02:02:03;15.30;91.50
15231;DHT22;32569;51.762;8.564;2022-09-03T02:04:31;15.20;91.60
15231;DHT22;32569;51.762;8.564;2022-09-03T02:06:59;15.20;91.60
15231;DHT22;32569;51.762;8.564;2022-09-03T02:09:26;15.10;91.60
15231;DHT22;32569;51.762;8.564;2022-09-03T02:11:56;15.10;91.60
15231;DHT22;32569;51.762;8.564;2022-09-03T02:14:25;15.10;91.70
15231;DHT22;32569;51.762;8.564;2022-09-03T02:16:55;15.10;91.70
15231;DHT22;32569;51.762;8.564;2022-09-03T02:19:26;15.10;91.80
15231;DHT22;32569;51.762;8.564;2022-09-03T02:21:55;15.10;91.80
15231;DHT22;32569;51.762;8.564;2022-09-03T02:24:22;15.00;91.90
15231;DHT22;32569;51.762;8.564;2022-09-03T02:26:49;14.90;91.90
15231;DHT22;32569;51.762;8.564;2022-09-03T02:29:16;15.00;92.00
15231;DHT22;32569;51.762;8.564;2022-09-03T02:31:43;14.90;92.10
15231;DHT22;32569;51.762;8.564;2022-09-03T02:34:09;14.90;92.10
15231;DHT22;32569;51.762;8.564;2022-09-03T02:36:41;14.90;92.20
15231;DHT22;32569;51.762;8.564;2022-09-03T02:39:10;14.90;92.30
15231;DHT22;32569;51.762;8.564;2022-09-03T02:41:37;14.70;92.40
15231;DHT22;32569;51.762;8.564;2022-09-03T02:44:08;14.70;92.50
15231;DHT22;32569;51.762;8.564;2022-09-03T02:46:40;14.60;92.50
15231;DHT22;32569;51.762;8.564;2022-09-03T02:49:08;14.60;92.50
15231;DHT22;32569;51.762;8.564;2022-09-03T02:51:38;14.70;92.40
15231;DHT22;32569;51.762;8.564;2022-09-03T02:54:06;14.80;92.70
15231;DHT22;32569;51.762;8.564;2022-09-03T02:56:33;14.70;92.40
15231;DHT22;32569;51.762;8.564;2022-09-03T02:59:02;14.80;92.40
15231;DHT22;32569;51.762;8.564;2022-09-03T03:01:28;14.80;92.50
15231;DHT22;32569;51.762;8.564;2022-09-03T03:03:55;14.70;92.50
15231;DHT22;32569;51.762;8.564;2022-09-03T03:06:22;14.70;92.40
15231;DHT22;32569;51.762;8.564;2022-09-03T03:08:50;14.70;92.50
15231;DHT22;32569;51.762;8.564;2022-09-03T03:11:21;14.60;92.60
15231;DHT22;32569;51.762;8.564;2022-09-03T03:13:50;14.60;92.60
15231;DHT22;32569;51.762;8.564;2022-09-03T03:16:17;14.60;92.60
15231;DHT22;32569;51.762;8.564;2022-09-03T03:18:44;14.60;92.70
15231;DHT22;32569;51.762;8.564;2022-09-03T03:21:14;14.50;92.90
15231;DHT22;32569;51.762;8.564;2022-09-03T03:23:40;14.50;93.00
15231;DHT22;32569;51.762;8.564;2022-09-03T03:26:11;14.40;93.10
15231;DHT22;32569;51.762;8.564;2022-09-03T03:28:38;14.30;93.40
15231;DHT22;32569;51.762;8.564;2022-09-03T03:31:06;14.30;93.20
15231;DHT22;32569;51.762;8.564;2022-09-03T03:33:33;14.20;93.30
15231;DHT22;32569;51.762;8.564;2022-09-03T03:36:04;14.20;93.30
15231;DHT22;32569;51.762;8.564;2022-09-03T03:38:30;14.20;93.30
15231;DHT22;32569;51.762;8.564;2022-09-03T03:40:57;14.30;93.30
15231;DHT22;32569;51.762;8.564;2022-09-03T03:43:25;14.30;93.20
15231;DHT22;32569;51.762;8.564;2022-09-03T03:45:56;14.20;93.30
15231;DHT22;32569;51.762;8.564;2022-09-03T03:48:23;14.30;93.40
15231;DHT22;32569;51.762;8.564;2022-09-03T03:50:50;14.20;93.40
15231;DHT22;32569;51.762;8.564;2022-09-03T03:53:16;14.20;93.40
15231;DHT22;32569;51.762;8.564;2022-09-03T03:55:52;14.20;93.50
15231;DHT22;32569;51.762;8.564;2022-09-03T03:58:19;14.10;93.50
15231;DHT22;32569;51.762;8.564;2022-09-03T04:00:47;14.10;93.50
15231;DHT22;32569;51.762;8.564;2022-09-03T04:03:13;14.10;93.60
15231;DHT22;32569;51.762;8.564;2022-09-03T04:05:40;14.20;93.60
15231;DHT22;32569;51.762;8.564;2022-09-03T04:08:07;14.10;93.50
15231;DHT22;32569;51.762;8.564;2022-09-03T04:10:34;14.20;93.60
15231;DHT22;32569;51.762;8.564;2022-09-03T04:13:01;14.10;93.70
15231;DHT22;32569;51.762;8.564;2022-09-03T04:15:28;14.10;93.80
15231;DHT22;32569;51.762;8.564;2022-09-03T04:17:56;14.10;93.80
15231;DHT22;32569;51.762;8.564;2022-09-03T04:20:22;14.00;93.80
15231;DHT22;32569;51.762;8.564;2022-09-03T04:22:49;13.90;94.00
15231;DHT22;32569;51.762;8.564;2022-09-03T04:25:15;13.90;94.10
15231;DHT22;32569;51.762;8.564;2022-09-03T04:27:42;13.80;94.20
15231;DHT22;32569;51.762;8.564;2022-09-03T04:30:10;13.90;94.20
15231;DHT22;32569;51.762;8.564;2022-09-03T04:32:36;13.90;94.10
15231;DHT22;32569;51.762;8.564;2022-09-03T04:35:24;13.90;94.20
15231;DHT22;32569;51.762;8.564;2022-09-03T04:37:53;13.80;94.30
15231;DHT22;32569;51.762;8.564;2022-09-03T04:40:20;13.80;94.30
15231;DHT22;32569;51.762;8.564;2022-09-03T04:42:47;13.80;94.40
15231;DHT22;32569;51.762;8.564;2022-09-03T04:45:14;13.70;94.50
15231;DHT22;32569;51.762;8.564;2022-09-03T04:47:43;13.70;94.30
15231;DHT22;32569;51.762;8.564;2022-09-03T04:50:11;13.70;94.40
15231;DHT22;32569;51.762;8.564;2022-09-03T04:52:39;13.70;94.40
15231;DHT22;32569;51.762;8.564;2022-09-03T04:55:07;13.70;94.60
15231;DHT22;32569;51.762;8.564;2022-09-03T04:57:35;13.70;94.50
15231;DHT22;32569;51.762;8.564;2022-09-03T05:00:04;13.60;94.50
15231;DHT22;32569;51.762;8.564;2022-09-03T05:02:34;13.70;94.40
15231;DHT22;32569;51.762;8.564;2022-09-03T05:05:01;13.60;94.50
15231;DHT22;32569;51.762;8.564;2022-09-03T05:07:29;13.60;94.50
15231;DHT22;32569;51.762;8.564;2022-09-03T05:10:05;13.60;94.60
15231;DHT22;32569;51.762;8.564;2022-09-03T05:12:33;13.80;94.50
15231;DHT22;32569;51.762;8.564;2022-09-03T05:15:00;14.00;94.30
15231;DHT22;32569;51.762;8.564;2022-09-03T05:17:28;14.50;93.60
15231;DHT22;32569;51.762;8.564;2022-09-03T05:19:55;15.00;93.00
15231;DHT22;32569;51.762;8.564;2022-09-03T05:22:22;15.30;92.50
15231;DHT22;32569;51.762;8.564;2022-09-03T05:24:49;15.30;92.50
15231;DHT22;32569;51.762;8.564;2022-09-03T05:27:17;15.40;92.50
15231;DHT22;32569;51.762;8.564;2022-09-03T05:29:44;15.60;92.30
15231;DHT22;32569;51.762;8.564;2022-09-03T05:32:11;15.70;92.30
15231;DHT22;32569;51.762;8.564;2022-09-03T05:34:38;15.80;92.20
15231;DHT22;32569;51.762;8.564;2022-09-03T05:37:05;16.00;91.90
15231;DHT22;32569;51.762;8.564;2022-09-03T05:39:31;16.00;92.00
15231;DHT22;32569;51.762;8.564;2022-09-03T05:41:58;16.00;92.00
15231;DHT22;32569;51.762;8.564;2022-09-03T05:44:26;15.90;92.10
15231;DHT22;32569;51.762;8.564;2022-09-03T05:46:53;15.90;92.20
15231;DHT22;32569;51.762;8.564;2022-09-03T05:49:20;16.10;91.90
15231;DHT22;32569;51.762;8.564;2022-09-03T05:51:46;16.20;91.80
15231;DHT22;32569;51.762;8.564;2022-09-03T05:54:13;16.10;92.00
15231;DHT22;32569;51.762;8.564;2022-09-03T05:56:40;16.30;91.80
15231;DHT22;32569;51.762;8.564;2022-09-03T05:59:08;16.30;91.80
15231;DHT22;32569;51.762;8.564;2022-09-03T06:01:37;16.40;91.60
15231;DHT22;32569;51.762;8.564;2022-09-03T06:04:05;16.40;91.50
15231;DHT22;32569;51.762;8.564;2022-09-03T06:06:34;16.20;91.70
15231;DHT22;32569;51.762;8.564;2022-09-03T06:09:02;16.20;92.00
15231;DHT22;32569;51.762;8.564;2022-09-03T06:11:30;16.10;92.20
15231;DHT22;32569;51.762;8.564;2022-09-03T06:13:58;16.10;92.10
15231;DHT22;32569;51.762;8.564;2022-09-03T06:16:27;16.10;92.10
15231;DHT22;32569;51.762;8.564;2022-09-03T06:18:55;15.90;92.40
15231;DHT22;32569;51.762;8.564;2022-09-03T06:21:22;16.00;92.40
15231;DHT22;32569;51.762;8.564;2022-09-03T06:23:49;16.10;92.30
15231;DHT22;32569;51.762;8.564;2022-09-03T06:26:17;16.00;92.40
15231;DHT22;32569;51.762;8.564;2022-09-03T06:28:44;15.90;92.60
15231;DHT22;32569;51.762;8.564;2022-09-03T06:31:13;15.90;92.50
15231;DHT22;32569;51.762;8.564;2022-09-03T06:33:41;16.10;92.10
15231;DHT22;32569;51.762;8.564;2022-09-03T06:36:11;16.30;92.10
15231;DHT22;32569;51.762;8.564;2022-09-03T06:38:38;16.30;92.10
15231;DHT22;32569;51.762;8.564;2022-09-03T06:41:07;16.30;91.80
15231;DHT22;32569;51.762;8.564;2022-09-03T06:43:36;16.50;91.70
15231;DHT22;32569;51.762;8.564;2022-09-03T06:46:06;16.50;91.70
15231;DHT22;32569;51.762;8.564;2022-09-03T06:48:33;16.50;91.70
15231;DHT22;32569;51.762;8.564;2022-09-03T06:51:02;16.60;91.80
15231;DHT22;32569;51.762;8.564;2022-09-03T06:53:31;16.70;91.50
15231;DHT22;32569;51.762;8.564;2022-09-03T06:56:00;16.80;91.70
15231;DHT22;32569;51.762;8.564;2022-09-03T06:58:28;16.70;91.60
15231;DHT22;32569;51.762;8.564;2022-09-03T07:01:00;16.80;91.90
15231;DHT22;32569;51.762;8.564;2022-09-03T07:03:28;16.90;91.50
15231;DHT22;32569;51.762;8.564;2022-09-03T07:05:59;16.90;91.80
15231;DHT22;32569;51.762;8.564;2022-09-03T07:08:26;17.00;91.50
15231;DHT22;32569;51.762;8.564;2022-09-03T07:10:55;17.00;91.60
15231;DHT22;32569;51.762;8.564;2022-09-03T07:13:22;17.00;91.30
15231;DHT22;32569;51.762;8.564;2022-09-03T07:15:58;17.30;91.20
15231;DHT22;32569;51.762;8.564;2022-09-03T07:18:25;17.30;91.10
15231;DHT22;32569;51.762;8.564;2022-09-03T07:20:57;17.40;91.10
15231;DHT22;32569;51.762;8.564;2022-09-03T07:23:25;17.40;90.70
15231;DHT22;32569;51.762;8.564;2022-09-03T07:25:53;17.60;91.00
15231;DHT22;32569;51.762;8.564;2022-09-03T07:28:21;17.80;90.50
15231;DHT22;32569;51.762;8.564;2022-09-03T07:30:49;17.80;90.70
15231;DHT22;32569;51.762;8.564;2022-09-03T07:33:15;17.90;90.60
15231;DHT22;32569;51.762;8.564;2022-09-03T07:35:42;17.90;90.40
15231;DHT22;32569;51.762;8.564;2022-09-03T07:38:09;18.00;90.40
15231;DHT22;32569;51.762;8.564;2022-09-03T07:40:36;18.00;90.00
15231;DHT22;32569;51.762;8.564;2022-09-03T07:43:03;18.00;90.30
15231;DHT22;32569;51.762;8.564;2022-09-03T07:45:31;18.10;90.50
15231;DHT22;32569;51.762;8.564;2022-09-03T07:47:58;18.20;90.20
15231;DHT22;32569;51.762;8.564;2022-09-03T07:50:25;18.30;90.00
15231;DHT22;32569;51.762;8.564;2022-09-03T07:52:55;18.20;89.90
15231;DHT22;32569;51.762;8.564;2022-09-03T07:55:22;18.20;90.70
15231;DHT22;32569;51.762;8.564;2022-09-03T07:57:49;18.50;90.10
15231;DHT22;32569;51.762;8.564;2022-09-03T08:00:20;18.60;89.60
15231;DHT22;32569;51.762;8.564;2022-09-03T08:02:50;18.60;90.20
15231;DHT22;32569;51.762;8.564;2022-09-03T08:05:17;18.70;90.10
15231;DHT22;32569;51.762;8.564;2022-09-03T08:07:44;18.80;89.90
15231;DHT22;32569;51.762;8.564;2022-09-03T08:10:11;19.00;89.70
15231;DHT22;32569;51.762;8.564;2022-09-03T08:12:39;19.00;89.30
15231;DHT22;32569;51.762;8.564;2022-09-03T08:15:06;19.00;89.90
15231;DHT22;32569;51.762;8.564;2022-09-03T08:17:33;18.90;89.30
15231;DHT22;32569;51.762;8.564;2022-09-03T08:20:01;19.10;89.60
15231;DHT22;32569;51.762;8.564;2022-09-03T08:22:28;19.20;89.00
15231;DHT22;32569;51.762;8.564;2022-09-03T08:24:55;19.20;88.40
15231;DHT22;32569;51.762;8.564;2022-09-03T08:27:22;19.30;88.70
15231;DHT22;32569;51.762;8.564;2022-09-03T08:29:49;19.20;88.30
15231;DHT22;32569;51.762;8.564;2022-09-03T08:32:16;19.30;88.00
15231;DHT22;32569;51.762;8.564;2022-09-03T08:34:43;19.30;88.70
15231;DHT22;32569;51.762;8.564;2022-09-03T08:37:10;19.40;88.60
15231;DHT22;32569;51.762;8.564;2022-09-03T08:39:37;19.50;89.10
15231;DHT22;32569;51.762;8.564;2022-09-03T08:42:43;19.50;88.20
15231;DHT22;32569;51.762;8.564;2022-09-03T08:45:16;19.60;88.50
15231;DHT22;32569;51.762;8.564;2022-09-03T08:47:48;19.90;87.40
15231;DHT22;32569;51.762;8.564;2022-09-03T08:50:22;19.80;88.00
15231;DHT22;32569;51.762;8.564;2022-09-03T08:52:53;20.00;88.10
15231;DHT22;32569;51.762;8.564;2022-09-03T08:55:25;20.10;88.00
15231;DHT22;32569;51.762;8.564;2022-09-03T08:57:58;20.30;88.00
15231;DHT22;32569;51.762;8.564;2022-09-03T09:00:33;20.30;86.40
15231;DHT22;32569;51.762;8.564;2022-09-03T09:03:30;20.30;87.40
15231;DHT22;32569;51.762;8.564;2022-09-03T09:06:06;20.40;86.70
15231;DHT22;32569;51.762;8.564;2022-09-03T09:08:45;20.30;86.40
15231;DHT22;32569;51.762;8.564;2022-09-03T09:11:21;20.40;86.90
15231;DHT22;32569;51.762;8.564;2022-09-03T09:13:55;20.50;86.80
15231;DHT22;32569;51.762;8.564;2022-09-03T09:16:30;20.60;86.70
15231;DHT22;32569;51.762;8.564;2022-09-03T09:19:14;20.70;87.30
15231;DHT22;32569;51.762;8.564;2022-09-03T09:21:48;20.80;86.70
15231;DHT22;32569;51.762;8.564;2022-09-03T09:24:21;20.70;86.30
15231;DHT22;32569;51.762;8.564;2022-09-03T09:26:48;20.90;85.70
15231;DHT22;32569;51.762;8.564;2022-09-03T09:29:16;20.90;85.20
15231;DHT22;32569;51.762;8.564;2022-09-03T09:31:42;21.10;85.30
15231;DHT22;32569;51.762;8.564;2022-09-03T09:34:10;21.20;85.50
15231;DHT22;32569;51.762;8.564;2022-09-03T09:36:41;21.10;85.20
15231;DHT22;32569;51.762;8.564;2022-09-03T09:39:10;21.10;85.40
15231;DHT22;32569;51.762;8.564;2022-09-03T09:41:41;21.10;85.30
15231;DHT22;32569;51.762;8.564;2022-09-03T09:44:18;21.10;84.70
15231;DHT22;32569;51.762;8.564;2022-09-03T09:46:45;21.20;84.80
15231;DHT22;32569;51.762;8.564;2022-09-03T09:49:29;21.20;84.40
15231;DHT22;32569;51.762;8.564;2022-09-03T09:52:01;21.20;85.40
15231;DHT22;32569;51.762;8.564;2022-09-03T09:54:28;21.40;85.00
15231;DHT22;32569;51.762;8.564;2022-09-03T09:57:01;21.30;84.50
15231;DHT22;32569;51.762;8.564;2022-09-03T09:59:28;21.40;84.90
15231;DHT22;32569;51.762;8.564;2022-09-03T10:02:06;21.50;84.80
15231;DHT22;32569;51.762;8.564;2022-09-03T10:04:34;21.50;84.50
15231;DHT22;32569;51.762;8.564;2022-09-03T10:07:04;21.60;84.60
15231;DHT22;32569;51.762;8.564;2022-09-03T10:09:32;21.80;85.00
15231;DHT22;32569;51.762;8.564;2022-09-03T10:12:11;22.10;84.50
